METAR Data
IDs: Format: Raw Decoded Include TAF

Data at: 0943 UTC 13 Aug 2022

LIMF 130920Z 23004KT 150V280 CAVOK 24/12 Q1015